Weather at Atlantic City International Airport

Public forecast

Using degrees Fahrenheit for public forecast. Weather courtesy of forecast.io.

Current aviation weather report (METAR) for Atlantic City International Airport

2024/05/30 13:54 (retrieved 9 minutes ago)

KACY 301354Z 32013KT 10SM SCT025 19/11 A2998 RMK AO2 SLP152 T01890111

Aviation forecast (TAF) for Atlantic City International Airport

2024/05/30 13:10 Ammendment (retrieved 53 minutes ago)

TAF AMD KACY 301302Z 3013/3112 33012KT P6SM FEW020 FM301400 33012G20KT P6SM SCT050 FM302300 01007KT P6SM FEW050 FM310200 VRB04KT P6SM SKC